Flight Track Log - Related Links

Times and Time Zones

All times are in EDT time to prevent confusion due to time zone crossing. See the N2145X flight status page for this flight to view local times or setup timezone preferences in your user account.

Time Position Orientation Groundspeed Altitude Reporting Facility
EDT Latitude Longitude Course Direction KTS MPH feet Rate Location/Type
Fri 03:12:49 PM 41.1433 -71.6958 251° West 107 123 2,900  Level Boston Center
Fri 03:13:50 PM 41.1247 -71.7319 236° Southwest 113 130 3,700 724 Climbing Boston Center
Fri 03:14:45 PM 41.1022 -71.7625 226° Southwest 117 135 4,300 417 Climbing Boston Center
Fri 03:15:45 PM 41.0794 -71.8067 236° Southwest 145 167 4,500 66 Climbing Boston Center
Fri 03:17:00 PM 41.1102 -71.7983 251° West  Level Estimated
Fri 03:17:47 PM 41.0333 -71.9000 237° Southwest 146 168 4,500  Level New York TRACON
Fri 03:18:47 PM 41.0167 -71.9500 246° West 140 161 4,500  Level New York TRACON
Fri 03:19:47 PM 41.0000 -71.9833 236° Southwest 137 158 4,500  Level New York TRACON
Fri 03:20:47 PM 40.9833 -72.0333 246° West 138 159 4,500  Level New York TRACON
Fri 03:21:47 PM 40.9667 -72.0833 246° West 138 159 4,500  Level New York TRACON
Fri 03:22:47 PM 40.9667 -72.1167 270° West 134 154 4,500  Level New York TRACON
Fri 03:23:47 PM 40.9333 -72.1667 229° Southwest 136 157 4,500  Level New York TRACON
Fri 03:24:47 PM 40.9167 -72.2167 246° West 138 159 4,500  Level New York TRACON
Fri 03:25:47 PM 40.9000 -72.2500 237° Southwest 136 157 4,500 50 Level New York TRACON
Fri 03:26:47 PM 40.8833 -72.2833 237° Southwest 163 188 4,600  Climbing New York TRACON
Fri 03:27:47 PM 40.8833 -72.2333 90° East 183 211 4,500 -48 Descending New York TRACON
Fri 03:28:53 PM 40.9167 -72.2000 37° Northeast 201 231 4,500  Level New York TRACON
Fri 03:29:47 PM 40.9167 -72.2333 270° West 135 155 4,500  Level New York TRACON
Fri 03:30:47 PM 40.9000 -72.2833 246° West 135 155 4,500  Level New York TRACON
Fri 03:31:53 PM 40.8833 -72.3333 246° West 138 159 4,500  Level New York TRACON
Fri 03:32:53 PM 40.8667 -72.3667 237° Southwest 134 154 4,500  Level New York TRACON
Fri 03:33:53 PM 40.8500 -72.4167 246° West 137 158 4,500  Level New York TRACON
Fri 03:34:53 PM 40.8333 -72.4667 246° West 137 158 4,500  Level New York TRACON
Fri 03:35:53 PM 40.8333 -72.5167 270° West 135 155 4,500  Level New York TRACON
Fri 03:36:53 PM 40.8167 -72.5667 246° West 136 157 4,500  Level New York TRACON
Fri 03:37:53 PM 40.8000 -72.6000 237° Southwest 135 155 4,500 -200 Level New York TRACON
Fri 03:38:53 PM 40.7833 -72.6500 246° West 137 158 4,100 -700 Descending New York TRACON
Fri 03:39:53 PM 40.7667 -72.7000 246° West 140 161 3,100 -1,000 Descending New York TRACON
Fri 03:41:00 PM 40.7816 -72.7451 258° West  Level Estimated
Fri 03:48:00 PM 40.8167 -72.8667 258° West  Level FlightAware Approximate
Fri 03:49:00 PM 40.8219 -72.8669 258° West  Level Estimated
Fri 03:50:00 PM 40.8167 -72.8667 258° West  Level FlightAware Approximate
Fri 03:51:00 PM 40.8219 -72.8669 258° West  Level Estimated
Fri 03:52:00 PM 40.8167 -72.8667 258° West  Level FlightAware Approximate
Fri 03:53:00 PM 40.8219 -72.8669 258° West  Level Estimated
Fri 03:54:00 PM 40.8167 -72.8667 258° West  Level FlightAware Approximate
Fri 03:55:00 PM 40.8219 -72.8669 258° West  Level Estimated
Fri 03:56:00 PM 40.8167 -72.8667 258° West  Level FlightAware Approximate
Fri 03:57:00 PM 40.8219 -72.8669 258° West  Level Estimated
Fri 03:58:00 PM 40.8167 -72.8667 258° West  Level FlightAware Approximate
Fri 03:59:00 PM 40.8219 -72.8669 258° West  Level Estimated
Fri 04:00:00 PM 40.8167 -72.8667 258° West  Level FlightAware Approximate

Login

Don't have an account? Register now (free) for customized features, flight alerts, and more!